Time;durP1;ratioP1;P1;durP2;ratioP2;P2;SDS_P1;SDS_P2;PMS_P1;PMS_P2;Temp;Humidity;BMP_temperature;BMP_pressure;BME280_temperature;BME280_humidity;BME280_pressure;Samples;Min_cycle;Max_cycle;Signal;HPM_P1;HPM_P2
2024/01/19 00:02:06;;;;;;;7.80;2.23;;;;;;;17.20;39.17;96135.84;10365818;28;20048;-31
2024/01/19 00:07:06;;;;;;;2.93;2.27;;;;;;;17.18;39.05;96141.75;10365770;28;20296;-31
2024/01/19 00:12:07;;;;;;;2.73;2.00;;;;;;;17.20;39.49;96150.16;10366036;28;20056;-31
2024/01/19 00:17:07;;;;;;;3.10;2.10;;;;;;;17.20;38.78;96155.22;10365597;28;20057;-30
2024/01/19 00:22:08;;;;;;;2.10;1.80;;;;;;;17.19;39.41;96164.50;10364503;28;20044;-31
2024/01/19 00:27:08;;;;;;;1.73;1.43;;;;;;;17.19;40.25;96184.75;10364337;28;20502;-30
2024/01/19 00:32:09;;;;;;;2.83;1.95;;;;;;;17.17;40.84;96190.66;10365117;28;20037;-31
2024/01/19 00:37:09;;;;;;;3.07;2.00;;;;;;;17.12;41.23;96187.28;10364527;28;20037;-31
2024/01/19 00:42:09;;;;;;;2.13;1.40;;;;;;;17.18;41.79;96207.50;10361843;28;20513;-30
2024/01/19 00:47:10;;;;;;;2.47;1.97;;;;;;;17.15;42.36;96217.66;10364876;28;20038;-32
2024/01/19 00:52:10;;;;;;;4.20;1.80;;;;;;;17.16;43.03;96231.97;10363428;28;20048;-31
2024/01/19 00:57:11;;;;;;;3.25;1.63;;;;;;;17.15;43.51;96242.94;10364380;28;20084;-31
2024/01/19 01:02:11;;;;;;;4.22;1.80;;;;;;;17.13;43.80;96250.50;10364215;28;20580;-31
2024/01/19 01:07:11;;;;;;;2.53;1.80;;;;;;;17.16;42.84;96254.72;10363199;28;20038;-31
2024/01/19 01:12:12;;;;;;;3.00;1.70;;;;;;;17.13;44.50;96259.78;10363953;28;20037;-33
2024/01/19 01:17:12;;;;;;;3.03;1.80;;;;;;;17.16;43.49;96254.72;10362456;28;20440;-31
2024/01/19 01:22:13;;;;;;;2.95;2.00;;;;;;;17.13;44.35;96270.75;10361875;28;20292;-30
2024/01/19 01:27:13;;;;;;;2.55;1.92;;;;;;;17.12;45.17;96285.91;10364386;28;20056;-32
2024/01/19 01:32:13;;;;;;;3.23;1.80;;;;;;;17.11;44.02;96291.81;10363978;28;20417;-31
2024/01/19 01:37:14;;;;;;;3.92;1.73;;;;;;;17.10;44.38;96295.22;10364088;28;20652;-31
2024/01/19 01:42:14;;;;;;;3.50;1.83;;;;;;;17.10;44.80;96312.91;10363805;28;20040;-30
2024/01/19 01:47:15;;;;;;;3.60;1.77;;;;;;;17.09;44.33;96314.59;10364038;28;20323;-31
2024/01/19 01:52:16;;;;;;;3.00;2.58;;;;;;;17.07;44.43;96323.88;10363571;28;20060;-31
2024/01/19 01:57:19;;;;;;;3.65;1.83;;;;;;;17.08;45.19;96332.31;10363376;28;20030;-31
2024/01/19 02:02:20;;;;;;;5.93;2.63;;;;;;;17.06;44.80;96334.00;10360861;28;20044;-31
2024/01/19 02:07:20;;;;;;;3.40;2.13;;;;;;;17.09;45.99;96339.06;10363450;28;20415;-32
2024/01/19 02:12:21;;;;;;;4.43;2.13;;;;;;;17.08;44.34;96332.31;10361746;28;20413;-30
2024/01/19 02:17:23;;;;;;;3.00;2.10;;;;;;;17.07;43.63;96340.75;10360028;28;20490;-31
2024/01/19 02:22:24;;;;;;;2.95;1.90;;;;;;;17.08;44.51;96339.91;10358483;28;20037;-31
2024/01/19 02:27:25;;;;;;;3.53;2.30;;;;;;;17.09;43.74;96351.69;10361667;28;20045;-31
2024/01/19 02:32:26;;;;;;;2.90;1.95;;;;;;;17.04;44.23;96360.94;10367087;28;20421;-31
2024/01/19 02:37:26;;;;;;;5.27;2.33;;;;;;;17.07;43.38;96376.97;10369467;28;20044;-30
2024/01/19 02:42:29;;;;;;;3.97;2.20;;;;;;;17.03;43.33;96367.72;10369110;28;20030;-31
2024/01/19 02:47:29;;;;;;;4.30;2.25;;;;;;;17.10;43.11;96381.19;10368604;28;20332;-31
2024/01/19 02:52:30;;;;;;;2.83;1.90;;;;;;;17.10;47.39;96386.25;10368550;28;20124;-31
2024/01/19 02:57:31;;;;;;;4.63;1.87;;;;;;;17.10;46.76;96383.72;10369127;28;20076;-30
2024/01/19 03:02:31;;;;;;;3.60;2.42;;;;;;;17.08;44.02;96388.78;10368370;28;20296;-31
2024/01/19 03:07:31;;;;;;;2.60;2.10;;;;;;;17.06;43.90;96387.13;10368969;28;20026;-31
2024/01/19 03:12:32;;;;;;;4.40;2.20;;;;;;;17.01;44.19;96376.13;10367050;28;20034;-31
2024/01/19 03:17:33;;;;;;;3.60;2.40;;;;;;;17.03;43.50;96382.03;10367076;28;20048;-31
2024/01/19 03:22:33;;;;;;;3.35;2.15;;;;;;;17.01;43.51;96383.72;10367226;28;20494;-31
2024/01/19 03:27:33;;;;;;;3.03;2.03;;;;;;;17.07;45.11;96393.84;10368007;28;20414;-31
2024/01/19 03:32:34;;;;;;;3.10;1.80;;;;;;;17.06;44.93;96394.69;10366835;28;20037;-31
2024/01/19 03:37:34;;;;;;;2.65;1.92;;;;;;;17.06;44.13;96394.69;10367994;28;20034;-31
2024/01/19 03:42:35;;;;;;;2.97;1.98;;;;;;;17.05;43.55;96408.16;10366440;28;20535;-30
2024/01/19 03:47:35;;;;;;;5.50;2.72;;;;;;;17.05;44.14;96410.69;10366280;28;20073;-33
2024/01/19 03:52:37;;;;;;;2.93;1.97;;;;;;;17.07;44.84;96411.56;10366302;28;20045;-30
2024/01/19 03:57:37;;;;;;;2.75;1.75;;;;;;;17.05;43.47;96410.69;10366225;28;20018;-31
2024/01/19 04:02:37;;;;;;;4.50;2.10;;;;;;;17.06;45.62;96420.81;10364782;28;20038;-31
2024/01/19 04:07:38;;;;;;;2.30;1.70;;;;;;;17.07;45.56;96421.69;10367064;28;20053;-31
2024/01/19 04:12:38;;;;;;;4.10;2.03;;;;;;;17.08;44.64;96413.25;10362982;28;20037;-31
2024/01/19 04:17:38;;;;;;;2.60;1.70;;;;;;;17.06;44.81;96420.00;10364991;28;20041;-31
2024/01/19 04:22:40;;;;;;;3.73;2.07;;;;;;;17.06;46.19;96425.03;10362379;28;20129;-31
2024/01/19 04:27:41;;;;;;;3.88;1.63;;;;;;;17.06;45.75;96425.03;10365128;28;20037;-30
2024/01/19 04:32:42;;;;;;;2.73;2.00;;;;;;;17.07;44.99;96430.09;10364672;28;20559;-31
2024/01/19 04:37:43;;;;;;;3.03;1.75;;;;;;;17.07;45.08;96432.63;10364280;28;20026;-31
2024/01/19 04:42:45;;;;;;;4.63;1.93;;;;;;;17.10;44.31;96452.00;10346503;28;20037;-31
2024/01/19 04:47:46;;;;;;;2.10;1.90;;;;;;;17.10;42.84;96441.91;10291806;28;20041;-36
2024/01/19 04:52:46;;;;;;;1.93;1.73;;;;;;;17.10;42.55;96446.97;10311452;28;20084;-31
2024/01/19 04:57:47;;;;;;;2.67;1.80;;;;;;;17.10;42.18;96452.88;10309250;28;20285;-32
2024/01/19 05:02:48;;;;;;;3.10;1.90;;;;;;;17.11;42.06;96462.16;10307203;28;20528;-32
2024/01/19 05:07:48;;;;;;;3.30;2.03;;;;;;;17.13;40.79;96469.72;10329233;28;20038;-31
2024/01/19 05:12:50;;;;;;;2.90;2.40;;;;;;;17.16;41.07;96479.84;10359431;28;20389;-31
2024/01/19 05:17:50;;;;;;;2.45;1.80;;;;;;;17.12;41.93;96481.53;10358958;28;20296;-31
2024/01/19 05:22:51;;;;;;;2.20;1.70;;;;;;;17.15;41.86;96500.94;10358794;28;20052;-31
2024/01/19 05:27:53;;;;;;;3.07;1.67;;;;;;;17.13;41.79;96505.13;10359495;28;20447;-32
2024/01/19 05:32:53;;;;;;;3.30;2.10;;;;;;;17.16;41.17;96517.81;10361857;28;20108;-31
2024/01/19 05:37:54;;;;;;;3.50;2.23;;;;;;;17.16;40.93;96525.38;10356362;28;20033;-32
2024/01/19 05:42:54;;;;;;;2.50;2.17;;;;;;;17.15;40.56;96522.00;10358836;28;20041;-31
2024/01/19 05:47:54;;;;;;;2.93;2.30;;;;;;;17.19;40.73;96536.34;10328418;28;20048;-33
2024/01/19 05:52:56;;;;;;;3.73;3.23;;;;;;;17.20;39.37;96544.78;10300149;28;20026;-30
2024/01/19 05:57:57;;;;;;;3.88;2.90;;;;;;;17.18;39.69;96556.59;10304365;28;20860;-32
2024/01/19 06:02:57;;;;;;;5.87;3.43;;;;;;;17.24;38.51;96567.56;10328326;28;20030;-31
2024/01/19 06:07:58;;;;;;;4.17;3.07;;;;;;;17.07;39.24;96568.38;10354480;28;20131;-31
2024/01/19 06:12:58;;;;;;;3.20;2.57;;;;;;;17.08;40.19;96565.81;10358762;28;20821;-31
2024/01/19 06:17:58;;;;;;;4.40;2.93;;;;;;;17.12;40.63;96581.84;10358768;28;20029;-31
2024/01/19 06:22:59;;;;;;;3.73;2.67;;;;;;;17.13;40.77;96596.19;10356733;28;20037;-31
2024/01/19 06:27:59;;;;;;;3.03;2.17;;;;;;;17.10;37.69;96583.53;10361620;28;20562;-30
2024/01/19 06:32:59;;;;;;;4.77;3.10;;;;;;;16.89;39.11;96608.75;10360375;28;20573;-30
2024/01/19 06:38:00;;;;;;;5.40;3.35;;;;;;;16.94;38.62;96612.13;10361662;28;20116;-30
2024/01/19 06:43:00;;;;;;;5.30;3.07;;;;;;;16.98;39.70;96624.81;10361239;28;20698;-32
2024/01/19 06:48:00;;;;;;;3.27;2.30;;;;;;;17.03;39.34;96627.34;10360719;28;20559;-30
2024/01/19 06:53:01;;;;;;;4.07;2.83;;;;;;;17.03;39.46;96637.47;10361415;28;20505;-31
2024/01/19 06:58:01;;;;;;;3.73;2.57;;;;;;;17.03;38.22;96650.13;10361197;28;20045;-30
2024/01/19 07:03:02;;;;;;;2.88;2.40;;;;;;;17.08;36.86;96653.53;10359592;28;20773;-31
2024/01/19 07:08:02;;;;;;;3.03;1.80;;;;;;;17.10;39.52;96654.38;10361492;28;20034;-31
2024/01/19 07:13:03;;;;;;;3.80;2.10;;;;;;;17.09;39.63;96655.22;10358809;28;20509;-30
2024/01/19 07:18:03;;;;;;;3.40;2.10;;;;;;;17.08;37.63;96661.09;10360003;28;20042;-31
2024/01/19 07:23:04;;;;;;;3.08;2.08;;;;;;;17.11;39.04;96681.34;10367996;28;20136;-31
2024/01/19 07:28:05;;;;;;;2.45;2.25;;;;;;;17.15;37.65;96678.00;10366745;28;20096;-32
2024/01/19 07:33:05;;;;;;;18.15;3.67;;;;;;;17.11;38.20;96689.78;10366357;28;20037;-30
2024/01/19 07:38:05;;;;;;;23.50;3.03;;;;;;;17.20;37.46;96711.75;10367397;28;20044;-31
2024/01/19 07:43:06;;;;;;;33.47;3.13;;;;;;;17.22;37.82;96717.66;10366547;28;20038;-31
2024/01/19 07:48:06;;;;;;;11.53;3.70;;;;;;;16.73;36.99;96722.44;10366555;28;20044;-31
2024/01/19 07:53:06;;;;;;;14.77;3.77;;;;;;;16.99;38.57;96736.94;10366880;28;20034;-30
2024/01/19 07:58:07;;;;;;;5.17;2.67;;;;;;;17.00;42.78;96753.81;10366043;28;20044;-31
2024/01/19 08:03:08;;;;;;;4.22;2.00;;;;;;;16.94;42.50;96767.25;10365409;28;20040;-30
2024/01/19 08:08:08;;;;;;;5.72;2.42;;;;;;;17.01;41.46;96778.25;10366971;28;20041;-31
2024/01/19 08:13:08;;;;;;;4.30;3.42;;;;;;;17.08;38.79;96787.56;10364949;28;20935;-32
2024/01/19 08:18:11;;;;;;;4.60;3.43;;;;;;;17.09;38.81;96789.25;10364899;28;20081;-30
2024/01/19 08:23:11;;;;;;;5.55;4.40;;;;;;;17.11;37.73;96792.66;10353003;28;20711;-31
2024/01/19 08:28:12;;;;;;;6.80;3.80;;;;;;;17.15;37.66;96804.50;10363507;28;20096;-31
2024/01/19 08:33:13;;;;;;;7.40;4.47;;;;;;;17.14;37.29;96802.81;10364477;28;20974;-31
2024/01/19 08:38:13;;;;;;;9.05;5.95;;;;;;;17.13;37.08;96801.06;10365403;28;20096;-30
2024/01/19 08:43:13;;;;;;;6.68;4.82;;;;;;;17.14;37.75;96807.88;10363997;28;20038;-31
2024/01/19 08:48:15;;;;;;;6.53;4.37;;;;;;;17.10;38.72;96821.31;10363885;28;20425;-31
2024/01/19 08:53:16;;;;;;;10.00;4.90;;;;;;;17.12;37.44;96824.69;10363932;28;20292;-30
2024/01/19 08:58:16;;;;;;;9.13;4.17;;;;;;;17.17;37.28;96854.22;10364480;28;20045;-32
2024/01/19 09:03:17;;;;;;;6.22;3.58;;;;;;;17.19;37.19;96860.19;10363457;28;20041;-31
2024/01/19 09:08:17;;;;;;;3.80;3.20;;;;;;;17.16;36.18;96877.00;10364461;28;20030;-31
2024/01/19 09:13:18;;;;;;;9.60;2.30;;;;;;;17.14;36.10;96884.56;10363288;28;20088;-31
2024/01/19 09:18:18;;;;;;;4.80;2.67;;;;;;;17.13;36.01;96892.16;10363292;28;20030;-31
2024/01/19 09:23:18;;;;;;;2.90;2.20;;;;;;;17.12;35.98;96898.91;10363584;28;20117;-31
2024/01/19 09:28:19;;;;;;;3.43;2.40;;;;;;;17.14;35.72;96907.34;10362377;28;20306;-31
2024/01/19 09:33:19;;;;;;;4.10;2.67;;;;;;;17.15;35.46;96915.81;10362085;28;20045;-30
2024/01/19 09:38:19;;;;;;;2.03;1.75;;;;;;;17.16;35.54;96922.56;10363377;28;20327;-31
2024/01/19 09:43:21;;;;;;;4.47;2.57;;;;;;;17.19;35.84;96932.69;10361645;28;20049;-28
2024/01/19 09:48:23;;;;;;;5.15;2.92;;;;;;;17.21;36.78;96946.19;10362448;28;20041;-31
2024/01/19 09:53:32;;;;;;;4.57;2.65;;;;;;;17.18;36.40;96944.50;10362426;28;20516;-31
2024/01/19 09:58:32;;;;;;;4.35;2.53;;;;;;;17.14;35.46;96959.66;10361908;28;20030;-31
2024/01/19 10:03:34;;;;;;;3.90;2.73;;;;;;;17.09;35.31;96956.22;10361962;28;20034;-31
2024/01/19 10:08:38;;;;;;;3.38;2.33;;;;;;;17.09;35.03;96954.50;10362561;28;20096;-31
2024/01/19 10:13:39;;;;;;;4.32;2.58;;;;;;;17.09;35.25;96956.22;10361482;28;20523;-31
2024/01/19 10:18:41;;;;;;;4.30;2.20;;;;;;;17.07;34.93;96962.94;10361510;28;20029;-31
2024/01/19 10:23:43;;;;;;;5.45;3.15;;;;;;;17.08;35.07;96964.63;10361815;28;20807;-31
2024/01/19 10:28:43;;;;;;;3.67;3.20;;;;;;;17.13;35.05;96968.03;10361213;28;20034;-30
2024/01/19 10:33:51;;;;;;;10.77;3.90;;;;;;;17.11;36.13;96964.66;10358309;28;20498;-31
2024/01/19 10:38:51;;;;;;;7.97;3.20;;;;;;;17.13;35.29;96962.97;10361181;28;20280;-31
2024/01/19 10:43:52;;;;;;;4.93;2.40;;;;;;;17.15;38.61;96967.22;10361096;28;20022;-32
2024/01/19 10:48:52;;;;;;;4.33;2.50;;;;;;;17.18;38.67;96961.34;10361294;28;20033;-31
2024/01/19 10:54:01;;;;;;;4.82;2.13;;;;;;;17.18;40.47;96972.34;10368568;28;20483;-31
2024/01/19 10:59:13;;;;;;;3.20;2.25;;;;;;;17.19;39.48;96978.22;10369128;28;20525;-31
2024/01/19 11:04:14;;;;;;;2.92;2.33;;;;;;;17.18;39.45;96976.53;10368048;28;20030;-32
2024/01/19 11:09:14;;;;;;;2.88;1.80;;;;;;;17.21;38.77;96976.53;10370281;28;20616;-31
2024/01/19 11:14:18;;;;;;;4.15;2.35;;;;;;;17.17;39.51;96969.78;10368462;28;20057;-28
2024/01/19 11:19:18;;;;;;;5.20;2.30;;;;;;;17.22;38.82;96978.25;10366113;28;20029;-31
2024/01/19 11:24:21;;;;;;;5.85;2.00;;;;;;;17.18;37.90;96968.94;10360533;28;20038;-31
2024/01/19 11:29:25;;;;;;;3.55;2.38;;;;;;;17.22;41.26;96981.63;10367376;28;20065;-29
2024/01/19 11:34:45;;;;;;;2.95;2.03;;;;;;;17.20;39.19;96997.63;10366750;28;20135;-31
2024/01/19 11:39:45;;;;;;;1.67;1.42;;;;;;;17.21;39.98;96986.66;10367794;28;20042;-31
2024/01/19 11:44:49;;;;;;;5.55;2.15;;;;;;;17.20;38.88;96979.91;10366053;28;20553;-31
2024/01/19 11:49:49;;;;;;;3.75;1.90;;;;;;;17.22;40.03;96983.31;10366050;28;20386;-31
2024/01/19 11:54:50;;;;;;;3.80;1.93;;;;;;;17.19;39.07;96968.97;10367246;28;20038;-30
2024/01/19 11:59:51;;;;;;;3.67;2.05;;;;;;;17.19;39.92;96960.50;10363813;28;20025;-33
2024/01/19 12:04:52;;;;;;;3.92;2.58;;;;;;;17.20;39.85;96960.53;10361407;28;20034;-29
2024/01/19 12:10:09;;;;;;;2.70;2.38;;;;;;;17.21;41.17;96966.44;10363185;28;20060;-31
2024/01/19 12:15:10;;;;;;;3.38;2.10;;;;;;;17.23;37.59;96957.19;10364633;28;20030;-31
2024/01/19 12:20:16;;;;;;;2.63;1.95;;;;;;;17.23;37.93;96959.72;10365396;28;20041;-31
2024/01/19 12:25:18;;;;;;;6.18;3.72;;;;;;;17.18;37.65;96968.94;10365411;28;20033;-30
2024/01/19 12:30:21;;;;;;;7.13;3.60;;;;;;;17.17;38.12;96974.84;10364922;28;20624;-31
2024/01/19 12:35:22;;;;;;;3.70;2.53;;;;;;;17.19;39.10;96968.97;10364561;28;20037;-31
2024/01/19 12:40:24;;;;;;;6.67;2.20;;;;;;;17.22;38.96;96974.03;10365252;28;20608;-31
2024/01/19 12:45:24;;;;;;;3.95;2.40;;;;;;;17.23;38.61;96979.97;10364135;28;20328;-31
2024/01/19 12:50:25;;;;;;;4.87;2.23;;;;;;;17.21;36.62;96961.38;10363705;28;20500;-31
2024/01/19 12:55:29;;;;;;;3.13;1.88;;;;;;;17.26;36.21;96965.63;10364532;28;20033;-32
2024/01/19 13:00:30;;;;;;;4.45;1.85;;;;;;;17.30;36.63;96974.97;10364432;28;20037;-31
2024/01/19 13:05:31;;;;;;;4.05;1.90;;;;;;;17.30;36.31;96976.63;10362685;28;21280;-30
2024/01/19 13:10:32;;;;;;;3.15;2.03;;;;;;;17.25;38.04;96988.41;10363783;28;20049;-31
2024/01/19 13:15:32;;;;;;;4.72;1.75;;;;;;;17.23;42.95;96987.56;10362565;28;20113;-31
2024/01/19 13:20:33;;;;;;;2.70;1.58;;;;;;;17.19;44.70;96990.88;10363039;28;20494;-31
2024/01/19 13:25:35;;;;;;;6.97;1.85;;;;;;;17.16;43.89;96990.84;10363204;28;20176;-31
2024/01/19 13:30:35;;;;;;;3.05;1.60;;;;;;;17.16;45.04;96980.75;10363146;28;20053;-32
2024/01/19 13:35:36;;;;;;;1.77;1.57;;;;;;;17.20;44.04;96990.91;10362704;28;20430;-30
2024/01/19 13:40:37;;;;;;;2.90;1.63;;;;;;;17.18;40.53;96984.97;10363087;28;20048;-31
2024/01/19 13:45:37;;;;;;;2.97;2.20;;;;;;;16.87;43.85;96995.63;10361498;28;20409;-30
2024/01/19 13:50:38;;;;;;;4.37;2.17;;;;;;;17.08;43.85;96995.00;10361498;28;20052;-30
2024/01/19 13:55:38;;;;;;;4.23;1.50;;;;;;;17.07;45.36;97003.41;10361893;28;20022;-31
2024/01/19 14:00:39;;;;;;;2.20;1.80;;;;;;;17.11;46.63;97007.66;10363073;28;20563;-31
2024/01/19 14:05:40;;;;;;;4.22;1.50;;;;;;;17.09;46.83;97007.63;10361851;28;20034;-31
2024/01/19 14:10:45;;;;;;;3.60;2.08;;;;;;;17.10;47.12;97019.47;10362455;28;20129;-28
2024/01/19 14:15:48;;;;;;;13.65;5.38;;;;;;;17.09;40.30;97001.75;10360423;28;20026;-30
2024/01/19 14:20:49;;;;;;;6.65;4.43;;;;;;;17.09;39.09;97001.75;10361687;28;20069;-31
2024/01/19 14:25:51;;;;;;;5.55;4.63;;;;;;;17.14;37.78;97010.25;10366069;28;20034;-31
2024/01/19 14:30:51;;;;;;;10.25;6.18;;;;;;;17.16;37.11;97026.28;10367082;28;20050;-32
2024/01/19 14:35:52;;;;;;;12.87;7.33;;;;;;;17.15;36.67;97027.94;10369491;28;21139;-32
2024/01/19 14:40:54;;;;;;;15.52;8.93;;;;;;;17.14;36.08;97038.06;10369389;28;20036;-31
2024/01/19 14:45:55;;;;;;;14.23;8.35;;;;;;;17.15;36.09;97033.00;10369956;28;20026;-31
2024/01/19 14:50:56;;;;;;;17.38;8.90;;;;;;;17.16;35.74;97044.00;10368427;28;20068;-31
2024/01/19 14:55:56;;;;;;;16.95;10.00;;;;;;;17.14;35.62;97040.59;10369429;28;20040;-32
2024/01/19 15:00:56;;;;;;;16.90;10.33;;;;;;;17.17;35.57;97050.75;10368335;28;20038;-30
2024/01/19 15:05:58;;;;;;;16.03;9.87;;;;;;;17.15;36.07;97053.25;10366945;28;20041;-31
2024/01/19 15:10:58;;;;;;;16.02;9.63;;;;;;;17.17;36.88;97041.44;10368554;28;20425;-31
2024/01/19 15:15:59;;;;;;;21.07;8.73;;;;;;;17.25;36.54;97055.03;10367087;28;20048;-31
2024/01/19 15:21:01;;;;;;;15.87;6.17;;;;;;;17.26;41.89;97055.88;10366990;28;20021;-31
2024/01/19 15:26:02;;;;;;;4.88;3.10;;;;;;;17.17;46.08;97061.69;10368289;28;20033;-31
2024/01/19 15:31:02;;;;;;;15.07;6.63;;;;;;;17.21;41.09;97063.44;10366659;28;20034;-31
2024/01/19 15:36:08;;;;;;;12.80;5.65;;;;;;;17.23;39.55;97068.53;10366819;28;20080;-30
2024/01/19 15:41:08;;;;;;;10.00;5.90;;;;;;;17.22;39.99;97076.91;10366414;28;20390;-30
2024/01/19 15:46:08;;;;;;;11.52;5.45;;;;;;;17.17;41.73;97076.03;10382786;28;20022;-31
2024/01/19 15:51:09;;;;;;;7.23;4.70;;;;;;;17.15;41.24;97088.66;10366058;28;20032;-31
2024/01/19 15:56:26;;;;;;;6.40;4.70;;;;;;;17.15;39.41;97095.41;10367238;28;20281;-32
2024/01/19 16:01:27;;;;;;;12.18;4.63;;;;;;;17.13;38.94;97097.06;10360652;28;20034;-31
2024/01/19 16:06:27;;;;;;;10.47;5.17;;;;;;;17.03;37.83;97105.38;10364157;28;20484;-30
2024/01/19 16:11:29;;;;;;;9.23;5.30;;;;;;;17.11;36.58;97096.19;10365840;28;20402;-33
2024/01/19 16:16:30;;;;;;;5.53;4.13;;;;;;;17.09;35.88;97098.69;10365802;28;20469;-32
2024/01/19 16:21:30;;;;;;;6.97;5.05;;;;;;;17.10;35.95;97105.50;10364191;28;20109;-31
2024/01/19 16:26:31;;;;;;;6.23;4.13;;;;;;;17.08;35.63;97109.66;10363539;28;20030;-31
2024/01/19 16:31:31;;;;;;;7.10;4.05;;;;;;;17.11;35.35;97116.44;10365333;28;20062;-30
2024/01/19 16:36:32;;;;;;;7.07;4.33;;;;;;;17.15;35.21;97128.31;10364767;28;20025;-31
2024/01/19 16:41:32;;;;;;;5.35;3.33;;;;;;;17.16;44.09;97138.44;10363838;28;20041;-31
2024/01/19 16:46:35;;;;;;;6.53;3.60;;;;;;;17.16;45.54;97147.72;10363613;28;20037;-30
2024/01/19 16:51:35;;;;;;;5.40;3.15;;;;;;;17.16;46.35;97160.38;10362823;28;20042;-31
2024/01/19 16:56:40;;;;;;;5.00;2.72;;;;;;;17.17;41.65;97172.19;10363772;28;20022;-31
2024/01/19 17:01:41;;;;;;;7.75;3.78;;;;;;;16.97;37.33;97168.53;10362938;28;20030;-31
2024/01/19 17:06:41;;;;;;;4.40;2.65;;;;;;;17.12;38.07;97173.78;10359646;28;20033;-31
2024/01/19 17:11:42;;;;;;;5.83;3.30;;;;;;;17.22;36.78;97188.25;10363338;28;20042;-32
2024/01/19 17:16:42;;;;;;;5.13;2.67;;;;;;;17.25;36.58;97191.66;10365914;28;20084;-31
2024/01/19 17:21:43;;;;;;;3.63;2.53;;;;;;;17.28;35.99;97196.78;10359950;28;20492;-30
2024/01/19 17:26:44;;;;;;;5.53;3.30;;;;;;;17.29;35.33;97192.56;10364128;28;20058;-30
2024/01/19 17:31:44;;;;;;;4.97;2.93;;;;;;;17.24;35.66;97196.72;10362189;28;20504;-31
2024/01/19 17:36:44;;;;;;;5.93;2.70;;;;;;;17.28;35.31;97204.38;10362845;28;20076;-30
2024/01/19 17:41:45;;;;;;;5.50;2.57;;;;;;;17.29;35.39;97211.13;10363611;28;20030;-30
2024/01/19 17:46:45;;;;;;;8.40;3.17;;;;;;;16.89;39.81;97228.31;10362989;28;20405;-31
2024/01/19 17:51:49;;;;;;;8.77;3.45;;;;;;;17.03;36.01;97232.72;10362848;28;20472;-31
2024/01/19 17:56:49;;;;;;;7.55;4.13;;;;;;;17.16;37.51;97243.84;10363492;28;20807;-30
2024/01/19 18:01:50;;;;;;;6.97;4.00;;;;;;;17.18;37.36;97243.06;10361865;28;20075;-31
2024/01/19 18:06:50;;;;;;;10.53;5.73;;;;;;;17.21;38.04;97242.22;10362360;28;20292;-30
2024/01/19 18:11:50;;;;;;;17.63;8.13;;;;;;;17.20;39.42;97248.97;10361191;28;20033;-31
2024/01/19 18:16:51;;;;;;;18.93;10.17;;;;;;;17.27;39.50;97249.91;10363039;28;20038;-31
2024/01/19 18:21:53;;;;;;;13.63;6.60;;;;;;;17.29;37.08;97253.28;10357422;28;20795;-31
2024/01/19 18:26:55;;;;;;;27.52;12.70;;;;;;;17.32;39.39;97258.41;10362301;28;20032;-32
2024/01/19 18:31:55;;;;;;;33.28;17.85;;;;;;;17.33;40.96;97270.22;10362782;28;20045;-31
2024/01/19 18:36:55;;;;;;;25.03;12.83;;;;;;;17.31;37.76;97282.03;10361730;28;20040;-31
2024/01/19 18:41:58;;;;;;;13.03;7.37;;;;;;;17.31;35.38;97287.09;10360626;28;20292;-32
2024/01/19 18:46:58;;;;;;;13.10;5.93;;;;;;;17.33;35.08;97291.31;10358469;28;20034;-32
2024/01/19 18:51:59;;;;;;;8.80;4.87;;;;;;;17.33;34.82;97296.38;10356708;28;20785;-32
2024/01/19 18:56:59;;;;;;;11.57;5.53;;;;;;;17.31;35.14;97294.69;10357206;28;20116;-34
2024/01/19 19:01:59;;;;;;;9.77;5.85;;;;;;;17.29;34.60;97304.78;10357615;28;20042;-32
2024/01/19 19:07:00;;;;;;;9.38;4.78;;;;;;;17.29;34.98;97298.84;10357626;28;20137;-31
2024/01/19 19:12:02;;;;;;;9.93;4.50;;;;;;;17.23;34.79;97298.78;10357560;28;20533;-31
2024/01/19 19:17:02;;;;;;;7.65;4.15;;;;;;;17.28;34.29;97317.38;10363150;28;20413;-30
2024/01/19 19:22:03;;;;;;;9.68;5.18;;;;;;;17.27;34.79;97324.16;10363008;28;20052;-33
2024/01/19 19:27:03;;;;;;;8.05;5.35;;;;;;;17.29;34.93;97336.81;10363737;28;20049;-31
2024/01/19 19:32:05;;;;;;;10.52;6.05;;;;;;;17.26;35.33;97344.38;10363974;28;20434;-31
2024/01/19 19:37:05;;;;;;;9.93;6.03;;;;;;;17.25;36.28;97358.69;10363054;28;20042;-31
2024/01/19 19:42:06;;;;;;;10.53;6.10;;;;;;;17.27;35.88;97357.06;10363085;28;20092;-30
2024/01/19 19:47:06;;;;;;;9.10;5.30;;;;;;;17.22;35.69;97350.19;10363771;28;20361;-31
2024/01/19 19:52:06;;;;;;;7.43;4.70;;;;;;;17.27;35.06;97356.19;10362096;28;20084;-30
2024/01/19 19:57:08;;;;;;;8.73;5.23;;;;;;;17.26;35.56;97355.31;10362068;28;20795;-30
2024/01/19 20:02:09;;;;;;;11.15;5.82;;;;;;;17.25;36.69;97357.84;10362714;28;20296;-30
2024/01/19 20:07:09;;;;;;;10.15;5.40;;;;;;;17.25;34.99;97365.44;10361241;28;20038;-31
2024/01/19 20:12:10;;;;;;;14.63;6.07;;;;;;;17.24;35.42;97372.16;10361533;28;20046;-29
2024/01/19 20:17:10;;;;;;;4.15;3.33;;;;;;;17.26;34.07;97377.25;10360706;28;20037;-31
2024/01/19 20:22:13;;;;;;;4.60;3.47;;;;;;;17.26;33.78;97370.50;10354665;28;20045;-30
2024/01/19 20:27:13;;;;;;;6.65;3.25;;;;;;;17.25;33.54;97363.75;10357694;28;20316;-32
2024/01/19 20:32:14;;;;;;;4.63;3.13;;;;;;;17.27;33.10;97364.63;10358490;28;20038;-32
2024/01/19 20:37:14;;;;;;;5.90;3.27;;;;;;;17.21;32.69;97362.00;10363289;28;20038;-28
2024/01/19 20:42:14;;;;;;;4.20;3.30;;;;;;;17.13;32.45;97360.19;10363925;28;20296;-28
2024/01/19 20:47:15;;;;;;;4.40;3.03;;;;;;;17.13;34.25;97383.81;10363790;28;20296;-29
2024/01/19 20:52:16;;;;;;;4.67;3.50;;;;;;;17.16;33.02;97380.47;10358735;28;20104;-30
2024/01/19 20:57:16;;;;;;;5.95;3.10;;;;;;;17.18;32.73;97373.75;10376328;28;20116;-31
2024/01/19 21:02:17;;;;;;;4.73;3.53;;;;;;;17.18;32.81;97382.22;10357150;28;20100;-32
2024/01/19 21:07:17;;;;;;;5.55;3.60;;;;;;;17.21;33.01;97387.31;10359895;28;20048;-31
2024/01/19 21:12:19;;;;;;;6.43;3.77;;;;;;;17.18;33.63;97379.69;10358893;28;20484;-32
2024/01/19 21:17:19;;;;;;;6.00;4.10;;;;;;;17.25;35.01;97399.16;10358816;28;20311;-31
2024/01/19 21:22:21;;;;;;;7.93;4.27;;;;;;;17.28;34.42;97405.97;10389889;28;20037;-31
2024/01/19 21:27:21;;;;;;;8.50;4.75;;;;;;;17.29;34.85;97400.06;10359887;28;20045;-31
2024/01/19 21:32:22;;;;;;;12.30;7.17;;;;;;;17.30;37.11;97411.88;10357623;28;20048;-31
2024/01/19 21:37:22;;;;;;;7.83;4.93;;;;;;;17.28;35.97;97423.69;10359390;28;20474;-30
2024/01/19 21:42:22;;;;;;;8.33;5.70;;;;;;;17.28;34.81;97423.69;10341101;28;20669;-34
2024/01/19 21:47:23;;;;;;;9.60;5.72;;;;;;;17.28;35.32;97421.16;10358366;28;20422;-31
2024/01/19 21:52:23;;;;;;;8.93;4.90;;;;;;;17.28;34.56;97429.59;10359195;28;20437;-30
2024/01/19 21:57:24;;;;;;;9.57;4.97;;;;;;;17.27;34.35;97427.91;10358469;28;20029;-31
2024/01/19 22:02:24;;;;;;;5.13;3.40;;;;;;;17.27;33.18;97421.97;10355540;28;20296;-31
2024/01/19 22:07:25;;;;;;;4.70;3.28;;;;;;;17.25;32.31;97428.69;10358969;28;20040;-31
2024/01/19 22:12:25;;;;;;;4.33;3.30;;;;;;;17.22;32.27;97421.03;10357985;28;20072;-32
2024/01/19 22:17:25;;;;;;;3.57;2.87;;;;;;;17.22;31.91;97426.09;10357416;28;20460;-31
2024/01/19 22:22:26;;;;;;;5.33;2.83;;;;;;;17.20;32.13;97435.34;10351488;28;20399;-31
2024/01/19 22:27:26;;;;;;;4.27;2.77;;;;;;;17.18;31.86;97431.97;10357210;28;20044;-31
2024/01/19 22:32:26;;;;;;;5.13;2.90;;;;;;;17.20;31.91;97425.22;10357997;28;20046;-31
2024/01/19 22:37:27;;;;;;;5.03;3.20;;;;;;;17.22;31.58;97428.63;10362046;28;20033;-30
2024/01/19 22:42:27;;;;;;;3.55;2.65;;;;;;;17.24;31.36;97437.97;10360951;28;20095;-30
2024/01/19 22:47:27;;;;;;;4.70;3.40;;;;;;;17.26;32.84;97450.66;10363836;28;20137;-30
2024/01/19 22:52:28;;;;;;;4.93;3.30;;;;;;;17.12;33.01;97457.16;10369172;28;20776;-31
2024/01/19 22:57:28;;;;;;;6.57;4.40;;;;;;;17.16;36.27;97457.22;10365887;28;20545;-30
2024/01/19 23:02:33;;;;;;;7.97;3.87;;;;;;;17.20;36.23;97470.78;10368370;28;20121;-30
2024/01/19 23:07:34;;;;;;;7.15;3.78;;;;;;;17.20;35.97;97470.78;10366928;28;20298;-32
2024/01/19 23:12:34;;;;;;;8.20;3.10;;;;;;;17.12;35.31;97457.16;10367645;28;20037;-30
2024/01/19 23:17:35;;;;;;;4.22;3.25;;;;;;;17.20;35.38;97478.38;10367851;28;20049;-32